sensor_id;sensor_type;location;lat;lon;timestamp;temperature;humidity
18412;DHT22;27097;51.738;19.472;2023-06-14T00:01:07;24.20;69.70
18412;DHT22;27097;51.738;19.472;2023-06-14T00:03:35;24.20;69.10
18412;DHT22;27097;51.738;19.472;2023-06-14T00:06:01;24.20;69.20
18412;DHT22;27097;51.738;19.472;2023-06-14T00:08:30;24.20;69.30
18412;DHT22;27097;51.738;19.472;2023-06-14T00:10:56;24.20;69.70
18412;DHT22;27097;51.738;19.472;2023-06-14T00:13:23;24.20;69.20
18412;DHT22;27097;51.738;19.472;2023-06-14T00:15:50;24.20;69.50
18412;DHT22;27097;51.738;19.472;2023-06-14T00:18:20;24.20;69.40
18412;DHT22;27097;51.738;19.472;2023-06-14T00:20:49;24.20;69.70
18412;DHT22;27097;51.738;19.472;2023-06-14T00:23:16;24.20;69.40
18412;DHT22;27097;51.738;19.472;2023-06-14T00:25:45;24.20;69.60
18412;DHT22;27097;51.738;19.472;2023-06-14T00:28:11;24.20;68.90
18412;DHT22;27097;51.738;19.472;2023-06-14T00:30:38;24.20;69.70
18412;DHT22;27097;51.738;19.472;2023-06-14T00:33:05;24.20;69.20
18412;DHT22;27097;51.738;19.472;2023-06-14T00:35:32;24.20;69.70
18412;DHT22;27097;51.738;19.472;2023-06-14T00:37:59;24.20;69.50
18412;DHT22;27097;51.738;19.472;2023-06-14T00:40:27;24.20;69.10
18412;DHT22;27097;51.738;19.472;2023-06-14T00:42:55;24.20;69.10
18412;DHT22;27097;51.738;19.472;2023-06-14T00:45:22;24.20;69.30
18412;DHT22;27097;51.738;19.472;2023-06-14T00:47:50;24.20;68.80
18412;DHT22;27097;51.738;19.472;2023-06-14T00:50:20;24.20;68.80
18412;DHT22;27097;51.738;19.472;2023-06-14T00:52:47;24.20;69.20
18412;DHT22;27097;51.738;19.472;2023-06-14T00:55:13;24.20;69.00
18412;DHT22;27097;51.738;19.472;2023-06-14T00:57:40;24.20;69.20
18412;DHT22;27097;51.738;19.472;2023-06-14T01:00:10;24.20;69.20
18412;DHT22;27097;51.738;19.472;2023-06-14T01:02:38;24.20;68.80
18412;DHT22;27097;51.738;19.472;2023-06-14T01:05:06;24.20;68.80
18412;DHT22;27097;51.738;19.472;2023-06-14T01:07:50;24.20;69.20
18412;DHT22;27097;51.738;19.472;2023-06-14T01:10:28;24.20;69.30
18412;DHT22;27097;51.738;19.472;2023-06-14T01:13:05;24.20;68.80
18412;DHT22;27097;51.738;19.472;2023-06-14T01:15:35;24.20;69.10
18412;DHT22;27097;51.738;19.472;2023-06-14T01:18:04;24.20;70.00
18412;DHT22;27097;51.738;19.472;2023-06-14T01:20:32;24.20;68.90
18412;DHT22;27097;51.738;19.472;2023-06-14T01:23:03;24.20;68.90
18412;DHT22;27097;51.738;19.472;2023-06-14T01:25:30;24.20;68.80
18412;DHT22;27097;51.738;19.472;2023-06-14T01:27:59;24.20;68.70
18412;DHT22;27097;51.738;19.472;2023-06-14T01:30:27;24.20;68.50
18412;DHT22;27097;51.738;19.472;2023-06-14T01:32:56;24.20;69.00
18412;DHT22;27097;51.738;19.472;2023-06-14T01:35:23;24.20;68.40
18412;DHT22;27097;51.738;19.472;2023-06-14T01:37:51;24.20;68.80
18412;DHT22;27097;51.738;19.472;2023-06-14T01:40:21;24.20;68.80
18412;DHT22;27097;51.738;19.472;2023-06-14T01:42:49;24.20;68.90
18412;DHT22;27097;51.738;19.472;2023-06-14T01:45:17;24.20;69.00
18412;DHT22;27097;51.738;19.472;2023-06-14T01:47:45;24.20;68.50
18412;DHT22;27097;51.738;19.472;2023-06-14T01:50:13;24.20;68.80
18412;DHT22;27097;51.738;19.472;2023-06-14T01:52:39;24.20;69.20
18412;DHT22;27097;51.738;19.472;2023-06-14T01:55:07;24.20;68.80
18412;DHT22;27097;51.738;19.472;2023-06-14T01:57:36;24.20;68.80
18412;DHT22;27097;51.738;19.472;2023-06-14T02:00:03;24.20;68.60
18412;DHT22;27097;51.738;19.472;2023-06-14T02:02:33;24.20;68.60
18412;DHT22;27097;51.738;19.472;2023-06-14T02:05:01;24.20;68.40
18412;DHT22;27097;51.738;19.472;2023-06-14T02:07:28;24.20;68.80
18412;DHT22;27097;51.738;19.472;2023-06-14T02:09:54;24.20;68.40
18412;DHT22;27097;51.738;19.472;2023-06-14T02:12:21;24.20;68.70
18412;DHT22;27097;51.738;19.472;2023-06-14T02:14:49;24.20;68.30
18412;DHT22;27097;51.738;19.472;2023-06-14T02:17:16;24.20;68.50
18412;DHT22;27097;51.738;19.472;2023-06-14T02:19:43;24.20;68.80
18412;DHT22;27097;51.738;19.472;2023-06-14T02:22:10;24.20;68.90
18412;DHT22;27097;51.738;19.472;2023-06-14T02:24:37;24.20;68.80
18412;DHT22;27097;51.738;19.472;2023-06-14T02:27:05;24.20;68.30
18412;DHT22;27097;51.738;19.472;2023-06-14T02:29:32;24.20;68.40
18412;DHT22;27097;51.738;19.472;2023-06-14T02:32:00;24.20;68.30
18412;DHT22;27097;51.738;19.472;2023-06-14T02:34:27;24.20;68.70
18412;DHT22;27097;51.738;19.472;2023-06-14T02:36:53;24.20;68.30
18412;DHT22;27097;51.738;19.472;2023-06-14T02:39:20;24.30;68.90
18412;DHT22;27097;51.738;19.472;2023-06-14T02:41:48;24.20;68.60
18412;DHT22;27097;51.738;19.472;2023-06-14T02:44:17;24.20;68.80
18412;DHT22;27097;51.738;19.472;2023-06-14T02:46:44;24.20;68.80
18412;DHT22;27097;51.738;19.472;2023-06-14T02:49:13;24.20;68.30
18412;DHT22;27097;51.738;19.472;2023-06-14T02:51:40;24.20;68.80
18412;DHT22;27097;51.738;19.472;2023-06-14T02:54:07;24.20;69.00
18412;DHT22;27097;51.738;19.472;2023-06-14T02:56:34;24.20;68.40
18412;DHT22;27097;51.738;19.472;2023-06-14T02:59:01;24.20;68.50
18412;DHT22;27097;51.738;19.472;2023-06-14T03:01:28;24.30;69.10
18412;DHT22;27097;51.738;19.472;2023-06-14T03:04:00;24.20;68.80
18412;DHT22;27097;51.738;19.472;2023-06-14T03:06:28;24.20;68.70
18412;DHT22;27097;51.738;19.472;2023-06-14T03:08:55;24.30;68.80
18412;DHT22;27097;51.738;19.472;2023-06-14T03:11:25;24.30;68.70
18412;DHT22;27097;51.738;19.472;2023-06-14T03:13:52;24.30;68.40
18412;DHT22;27097;51.738;19.472;2023-06-14T03:16:19;24.20;68.10
18412;DHT22;27097;51.738;19.472;2023-06-14T03:18:48;24.20;68.80
18412;DHT22;27097;51.738;19.472;2023-06-14T03:21:15;24.20;68.70
18412;DHT22;27097;51.738;19.472;2023-06-14T03:23:44;24.20;69.00
18412;DHT22;27097;51.738;19.472;2023-06-14T03:26:11;24.30;69.30
18412;DHT22;27097;51.738;19.472;2023-06-14T03:28:40;24.20;68.80
18412;DHT22;27097;51.738;19.472;2023-06-14T03:31:07;24.20;68.70
18412;DHT22;27097;51.738;19.472;2023-06-14T03:33:34;24.20;68.70
18412;DHT22;27097;51.738;19.472;2023-06-14T03:36:01;24.20;69.10
18412;DHT22;27097;51.738;19.472;2023-06-14T03:38:28;24.30;68.80
18412;DHT22;27097;51.738;19.472;2023-06-14T03:40:57;24.20;69.60
18412;DHT22;27097;51.738;19.472;2023-06-14T03:43:23;24.20;69.10
18412;DHT22;27097;51.738;19.472;2023-06-14T03:45:50;24.20;69.30
18412;DHT22;27097;51.738;19.472;2023-06-14T03:48:17;24.20;69.20
18412;DHT22;27097;51.738;19.472;2023-06-14T03:50:44;24.20;69.00
18412;DHT22;27097;51.738;19.472;2023-06-14T03:53:11;24.30;69.60
18412;DHT22;27097;51.738;19.472;2023-06-14T03:55:38;24.30;70.00
18412;DHT22;27097;51.738;19.472;2023-06-14T03:58:06;24.20;69.40
18412;DHT22;27097;51.738;19.472;2023-06-14T04:00:33;24.20;69.60
18412;DHT22;27097;51.738;19.472;2023-06-14T04:03:01;24.30;69.80
18412;DHT22;27097;51.738;19.472;2023-06-14T04:05:28;24.30;69.40
18412;DHT22;27097;51.738;19.472;2023-06-14T04:07:55;24.30;68.90
18412;DHT22;27097;51.738;19.472;2023-06-14T04:10:22;24.30;69.60
18412;DHT22;27097;51.738;19.472;2023-06-14T04:12:49;24.30;69.30
18412;DHT22;27097;51.738;19.472;2023-06-14T04:15:18;24.30;69.50
18412;DHT22;27097;51.738;19.472;2023-06-14T04:17:45;24.30;69.70
18412;DHT22;27097;51.738;19.472;2023-06-14T04:20:12;24.30;69.00
18412;DHT22;27097;51.738;19.472;2023-06-14T04:22:39;24.30;69.40
18412;DHT22;27097;51.738;19.472;2023-06-14T04:25:07;24.30;70.50
18412;DHT22;27097;51.738;19.472;2023-06-14T04:27:34;24.30;69.80
18412;DHT22;27097;51.738;19.472;2023-06-14T04:30:02;24.30;69.90
18412;DHT22;27097;51.738;19.472;2023-06-14T04:32:30;24.30;70.00
18412;DHT22;27097;51.738;19.472;2023-06-14T04:34:59;24.30;70.00
18412;DHT22;27097;51.738;19.472;2023-06-14T04:37:27;24.30;69.70
18412;DHT22;27097;51.738;19.472;2023-06-14T04:39:56;24.30;69.60
18412;DHT22;27097;51.738;19.472;2023-06-14T04:42:23;24.30;70.00
18412;DHT22;27097;51.738;19.472;2023-06-14T04:44:51;24.30;70.50
18412;DHT22;27097;51.738;19.472;2023-06-14T04:47:21;24.30;70.00
18412;DHT22;27097;51.738;19.472;2023-06-14T04:49:51;24.30;70.00
18412;DHT22;27097;51.738;19.472;2023-06-14T04:52:19;24.30;70.10
18412;DHT22;27097;51.738;19.472;2023-06-14T04:54:46;24.30;69.80
18412;DHT22;27097;51.738;19.472;2023-06-14T04:57:14;24.30;70.60
18412;DHT22;27097;51.738;19.472;2023-06-14T04:59:42;24.30;70.20
18412;DHT22;27097;51.738;19.472;2023-06-14T05:02:09;24.30;69.90
18412;DHT22;27097;51.738;19.472;2023-06-14T05:04:37;24.30;70.20
18412;DHT22;27097;51.738;19.472;2023-06-14T05:07:07;24.30;70.40
18412;DHT22;27097;51.738;19.472;2023-06-14T05:09:34;24.30;69.80
18412;DHT22;27097;51.738;19.472;2023-06-14T05:12:01;24.30;70.50
18412;DHT22;27097;51.738;19.472;2023-06-14T05:14:29;24.40;69.10
18412;DHT22;27097;51.738;19.472;2023-06-14T05:16:57;24.40;68.20
18412;DHT22;27097;51.738;19.472;2023-06-14T05:19:28;24.40;67.70
18412;DHT22;27097;51.738;19.472;2023-06-14T05:21:54;24.40;67.20
18412;DHT22;27097;51.738;19.472;2023-06-14T05:24:23;24.40;66.90
18412;DHT22;27097;51.738;19.472;2023-06-14T05:26:50;24.40;67.30
18412;DHT22;27097;51.738;19.472;2023-06-14T05:29:17;24.30;67.10
18412;DHT22;27097;51.738;19.472;2023-06-14T05:31:44;24.40;67.00
18412;DHT22;27097;51.738;19.472;2023-06-14T05:34:11;24.30;66.90
18412;DHT22;27097;51.738;19.472;2023-06-14T05:36:38;24.40;66.90
18412;DHT22;27097;51.738;19.472;2023-06-14T05:39:05;24.40;67.90
18412;DHT22;27097;51.738;19.472;2023-06-14T05:41:33;24.40;68.00
18412;DHT22;27097;51.738;19.472;2023-06-14T05:44:01;24.40;67.80
18412;DHT22;27097;51.738;19.472;2023-06-14T05:46:28;24.40;67.20
18412;DHT22;27097;51.738;19.472;2023-06-14T05:48:55;24.40;67.60
18412;DHT22;27097;51.738;19.472;2023-06-14T05:51:22;24.40;70.40
18412;DHT22;27097;51.738;19.472;2023-06-14T05:53:50;24.40;71.10
18412;DHT22;27097;51.738;19.472;2023-06-14T05:56:18;24.40;71.50
18412;DHT22;27097;51.738;19.472;2023-06-14T05:58:47;24.40;71.80
18412;DHT22;27097;51.738;19.472;2023-06-14T06:01:14;24.50;71.70
18412;DHT22;27097;51.738;19.472;2023-06-14T06:03:41;24.50;71.90
18412;DHT22;27097;51.738;19.472;2023-06-14T06:06:11;24.50;71.00
18412;DHT22;27097;51.738;19.472;2023-06-14T06:08:38;24.50;70.90
18412;DHT22;27097;51.738;19.472;2023-06-14T06:11:06;24.60;70.10
18412;DHT22;27097;51.738;19.472;2023-06-14T06:13:33;24.50;68.90
18412;DHT22;27097;51.738;19.472;2023-06-14T06:16:02;24.60;69.80
18412;DHT22;27097;51.738;19.472;2023-06-14T06:18:29;24.60;69.20
18412;DHT22;27097;51.738;19.472;2023-06-14T06:20:55;24.60;70.90
18412;DHT22;27097;51.738;19.472;2023-06-14T06:23:22;24.60;70.70
18412;DHT22;27097;51.738;19.472;2023-06-14T06:25:49;24.60;71.00
18412;DHT22;27097;51.738;19.472;2023-06-14T06:28:16;24.60;71.60
18412;DHT22;27097;51.738;19.472;2023-06-14T06:30:43;24.60;71.90
18412;DHT22;27097;51.738;19.472;2023-06-14T06:33:11;24.60;71.70
18412;DHT22;27097;51.738;19.472;2023-06-14T06:35:39;24.60;71.80
18412;DHT22;27097;51.738;19.472;2023-06-14T06:38:06;24.60;71.30
18412;DHT22;27097;51.738;19.472;2023-06-14T06:40:34;24.60;71.00
18412;DHT22;27097;51.738;19.472;2023-06-14T06:43:03;24.60;71.00
18412;DHT22;27097;51.738;19.472;2023-06-14T06:45:30;24.60;70.10
18412;DHT22;27097;51.738;19.472;2023-06-14T06:47:57;24.60;70.50
18412;DHT22;27097;51.738;19.472;2023-06-14T06:50:25;24.60;70.70
18412;DHT22;27097;51.738;19.472;2023-06-14T06:52:52;24.60;70.40
18412;DHT22;27097;51.738;19.472;2023-06-14T06:55:19;24.60;70.10
18412;DHT22;27097;51.738;19.472;2023-06-14T06:57:46;24.60;69.90
18412;DHT22;27097;51.738;19.472;2023-06-14T07:00:16;24.60;69.90
18412;DHT22;27097;51.738;19.472;2023-06-14T07:02:43;24.60;69.60
18412;DHT22;27097;51.738;19.472;2023-06-14T07:05:10;24.60;68.30
18412;DHT22;27097;51.738;19.472;2023-06-14T07:07:38;24.50;64.50
18412;DHT22;27097;51.738;19.472;2023-06-14T07:10:06;24.40;61.40
18412;DHT22;27097;51.738;19.472;2023-06-14T07:12:36;24.30;61.80
18412;DHT22;27097;51.738;19.472;2023-06-14T07:15:06;24.20;62.80
18412;DHT22;27097;51.738;19.472;2023-06-14T07:17:34;24.20;62.60
18412;DHT22;27097;51.738;19.472;2023-06-14T07:20:02;24.20;62.60
18412;DHT22;27097;51.738;19.472;2023-06-14T07:22:39;24.20;62.50
18412;DHT22;27097;51.738;19.472;2023-06-14T07:25:08;24.20;66.50
18412;DHT22;27097;51.738;19.472;2023-06-14T07:27:35;24.30;65.80
18412;DHT22;27097;51.738;19.472;2023-06-14T07:30:02;24.30;63.00
18412;DHT22;27097;51.738;19.472;2023-06-14T07:32:29;24.40;64.10
18412;DHT22;27097;51.738;19.472;2023-06-14T07:34:56;24.40;60.80
18412;DHT22;27097;51.738;19.472;2023-06-14T07:37:24;24.40;60.30
18412;DHT22;27097;51.738;19.472;2023-06-14T07:39:52;24.40;59.60
18412;DHT22;27097;51.738;19.472;2023-06-14T07:42:19;24.30;61.20
18412;DHT22;27097;51.738;19.472;2023-06-14T07:44:46;24.30;59.80
18412;DHT22;27097;51.738;19.472;2023-06-14T07:47:13;24.30;59.20
18412;DHT22;27097;51.738;19.472;2023-06-14T07:49:40;24.10;58.70
18412;DHT22;27097;51.738;19.472;2023-06-14T07:52:07;23.90;58.50
18412;DHT22;27097;51.738;19.472;2023-06-14T07:54:34;23.90;58.30
18412;DHT22;27097;51.738;19.472;2023-06-14T07:57:03;23.80;57.70
18412;DHT22;27097;51.738;19.472;2023-06-14T07:59:31;23.70;58.50
18412;DHT22;27097;51.738;19.472;2023-06-14T08:01:58;23.80;58.10
18412;DHT22;27097;51.738;19.472;2023-06-14T08:04:25;23.80;58.30
18412;DHT22;27097;51.738;19.472;2023-06-14T08:06:52;23.80;57.70
18412;DHT22;27097;51.738;19.472;2023-06-14T08:09:19;23.80;57.60
18412;DHT22;27097;51.738;19.472;2023-06-14T08:11:46;23.80;57.40
18412;DHT22;27097;51.738;19.472;2023-06-14T08:14:15;23.80;57.70
18412;DHT22;27097;51.738;19.472;2023-06-14T08:16:42;23.70;57.30
18412;DHT22;27097;51.738;19.472;2023-06-14T08:19:11;23.50;57.30
18412;DHT22;27097;51.738;19.472;2023-06-14T08:21:38;23.60;58.70
18412;DHT22;27097;51.738;19.472;2023-06-14T08:24:05;23.60;58.10
18412;DHT22;27097;51.738;19.472;2023-06-14T08:26:33;23.60;57.40
18412;DHT22;27097;51.738;19.472;2023-06-14T08:28:59;23.70;57.70
18412;DHT22;27097;51.738;19.472;2023-06-14T08:31:28;23.80;56.90
18412;DHT22;27097;51.738;19.472;2023-06-14T08:33:57;23.80;56.30
18412;DHT22;27097;51.738;19.472;2023-06-14T08:36:26;23.70;56.70
18412;DHT22;27097;51.738;19.472;2023-06-14T08:38:53;23.70;56.20
18412;DHT22;27097;51.738;19.472;2023-06-14T08:41:22;23.30;55.90
18412;DHT22;27097;51.738;19.472;2023-06-14T08:43:50;23.20;57.20
18412;DHT22;27097;51.738;19.472;2023-06-14T08:46:18;23.20;57.30
18412;DHT22;27097;51.738;19.472;2023-06-14T08:48:49;23.20;57.80
18412;DHT22;27097;51.738;19.472;2023-06-14T08:51:19;23.20;56.80
18412;DHT22;27097;51.738;19.472;2023-06-14T08:53:49;23.10;57.00
18412;DHT22;27097;51.738;19.472;2023-06-14T08:56:18;23.20;56.50
18412;DHT22;27097;51.738;19.472;2023-06-14T08:58:47;23.20;56.50
18412;DHT22;27097;51.738;19.472;2023-06-14T09:01:15;23.30;56.30
18412;DHT22;27097;51.738;19.472;2023-06-14T09:03:43;23.20;55.90
18412;DHT22;27097;51.738;19.472;2023-06-14T09:06:12;23.20;56.10
18412;DHT22;27097;51.738;19.472;2023-06-14T09:08:41;23.10;56.00
18412;DHT22;27097;51.738;19.472;2023-06-14T09:11:10;23.20;56.20
18412;DHT22;27097;51.738;19.472;2023-06-14T09:13:37;23.20;56.30
18412;DHT22;27097;51.738;19.472;2023-06-14T09:16:05;23.20;56.30
18412;DHT22;27097;51.738;19.472;2023-06-14T09:18:35;23.20;56.20
18412;DHT22;27097;51.738;19.472;2023-06-14T09:21:03;23.20;56.20
18412;DHT22;27097;51.738;19.472;2023-06-14T09:23:33;23.30;56.30
18412;DHT22;27097;51.738;19.472;2023-06-14T09:26:06;23.40;56.20
18412;DHT22;27097;51.738;19.472;2023-06-14T09:28:33;23.30;56.00
18412;DHT22;27097;51.738;19.472;2023-06-14T09:31:01;23.40;56.90
18412;DHT22;27097;51.738;19.472;2023-06-14T09:33:28;23.40;56.70
18412;DHT22;27097;51.738;19.472;2023-06-14T09:35:55;23.40;57.10
18412;DHT22;27097;51.738;19.472;2023-06-14T09:38:21;23.40;58.30
18412;DHT22;27097;51.738;19.472;2023-06-14T09:40:51;23.50;57.80
18412;DHT22;27097;51.738;19.472;2023-06-14T09:43:19;23.50;57.70
18412;DHT22;27097;51.738;19.472;2023-06-14T09:45:48;23.60;57.50
18412;DHT22;27097;51.738;19.472;2023-06-14T09:48:15;23.60;57.40
18412;DHT22;27097;51.738;19.472;2023-06-14T09:50:45;23.60;57.20
18412;DHT22;27097;51.738;19.472;2023-06-14T09:53:13;23.70;57.70
18412;DHT22;27097;51.738;19.472;2023-06-14T09:55:41;23.70;58.90
18412;DHT22;27097;51.738;19.472;2023-06-14T09:58:10;23.70;58.60
18412;DHT22;27097;51.738;19.472;2023-06-14T10:00:39;23.80;61.20
18412;DHT22;27097;51.738;19.472;2023-06-14T10:03:11;23.80;58.00
18412;DHT22;27097;51.738;19.472;2023-06-14T10:05:42;23.80;57.60
18412;DHT22;27097;51.738;19.472;2023-06-14T10:08:12;23.80;57.50
18412;DHT22;27097;51.738;19.472;2023-06-14T10:10:41;23.80;60.10
18412;DHT22;27097;51.738;19.472;2023-06-14T10:13:10;23.80;58.70
18412;DHT22;27097;51.738;19.472;2023-06-14T10:15:42;23.90;58.20
18412;DHT22;27097;51.738;19.472;2023-06-14T10:18:19;23.90;60.00
18412;DHT22;27097;51.738;19.472;2023-06-14T10:20:55;23.90;57.70
18412;DHT22;27097;51.738;19.472;2023-06-14T10:23:26;23.90;57.70
18412;DHT22;27097;51.738;19.472;2023-06-14T10:25:57;23.90;56.70
18412;DHT22;27097;51.738;19.472;2023-06-14T10:28:26;23.90;58.70
18412;DHT22;27097;51.738;19.472;2023-06-14T10:31:06;23.90;57.80
18412;DHT22;27097;51.738;19.472;2023-06-14T10:33:34;24.00;57.50
18412;DHT22;27097;51.738;19.472;2023-06-14T10:36:24;24.00;57.80
18412;DHT22;27097;51.738;19.472;2023-06-14T10:39:00;23.90;56.70
18412;DHT22;27097;51.738;19.472;2023-06-14T10:41:29;23.90;58.60
18412;DHT22;27097;51.738;19.472;2023-06-14T10:47:01;23.90;56.10
18412;DHT22;27097;51.738;19.472;2023-06-14T10:49:39;24.00;55.50
18412;DHT22;27097;51.738;19.472;2023-06-14T10:52:11;24.00;57.50
18412;DHT22;27097;51.738;19.472;2023-06-14T10:55:05;24.00;58.40
18412;DHT22;27097;51.738;19.472;2023-06-14T10:57:35;24.00;60.60
18412;DHT22;27097;51.738;19.472;2023-06-14T11:00:03;24.00;57.90
18412;DHT22;27097;51.738;19.472;2023-06-14T11:02:53;24.00;58.50
18412;DHT22;27097;51.738;19.472;2023-06-14T11:05:26;24.00;61.00
18412;DHT22;27097;51.738;19.472;2023-06-14T11:10:48;24.00;58.90
18412;DHT22;27097;51.738;19.472;2023-06-14T11:13:16;24.00;59.80
18412;DHT22;27097;51.738;19.472;2023-06-14T11:15:45;24.00;59.50
18412;DHT22;27097;51.738;19.472;2023-06-14T11:18:14;24.00;56.00
18412;DHT22;27097;51.738;19.472;2023-06-14T11:20:42;23.90;56.20
18412;DHT22;27097;51.738;19.472;2023-06-14T11:23:09;24.00;57.00
18412;DHT22;27097;51.738;19.472;2023-06-14T11:25:36;23.90;58.50
18412;DHT22;27097;51.738;19.472;2023-06-14T11:28:03;23.90;56.50
18412;DHT22;27097;51.738;19.472;2023-06-14T11:30:30;23.90;55.60
18412;DHT22;27097;51.738;19.472;2023-06-14T11:32:57;23.90;56.60
18412;DHT22;27097;51.738;19.472;2023-06-14T11:35:26;23.90;56.50
18412;DHT22;27097;51.738;19.472;2023-06-14T11:37:53;23.80;55.90
18412;DHT22;27097;51.738;19.472;2023-06-14T11:40:24;23.80;56.70
18412;DHT22;27097;51.738;19.472;2023-06-14T11:42:58;23.80;56.70
18412;DHT22;27097;51.738;19.472;2023-06-14T11:45:26;23.80;57.00
18412;DHT22;27097;51.738;19.472;2023-06-14T11:47:55;23.80;57.30
18412;DHT22;27097;51.738;19.472;2023-06-14T11:50:23;23.80;58.10
18412;DHT22;27097;51.738;19.472;2023-06-14T11:52:53;23.90;57.70
18412;DHT22;27097;51.738;19.472;2023-06-14T11:55:21;24.00;57.10
18412;DHT22;27097;51.738;19.472;2023-06-14T11:57:48;24.00;57.50
18412;DHT22;27097;51.738;19.472;2023-06-14T12:00:16;24.00;57.80
18412;DHT22;27097;51.738;19.472;2023-06-14T12:02:52;24.10;58.60
18412;DHT22;27097;51.738;19.472;2023-06-14T12:05:21;24.10;59.50
18412;DHT22;27097;51.738;19.472;2023-06-14T12:07:48;24.10;59.90
18412;DHT22;27097;51.738;19.472;2023-06-14T12:10:17;24.10;60.70
18412;DHT22;27097;51.738;19.472;2023-06-14T12:12:44;24.10;57.30
18412;DHT22;27097;51.738;19.472;2023-06-14T12:15:11;24.10;57.70
18412;DHT22;27097;51.738;19.472;2023-06-14T12:17:39;24.20;59.40
18412;DHT22;27097;51.738;19.472;2023-06-14T12:20:08;24.20;59.80
18412;DHT22;27097;51.738;19.472;2023-06-14T12:22:36;24.20;59.50
18412;DHT22;27097;51.738;19.472;2023-06-14T12:25:04;24.20;59.90
18412;DHT22;27097;51.738;19.472;2023-06-14T12:27:32;24.20;58.50
18412;DHT22;27097;51.738;19.472;2023-06-14T12:30:00;24.20;57.50
18412;DHT22;27097;51.738;19.472;2023-06-14T12:32:27;24.20;58.60
18412;DHT22;27097;51.738;19.472;2023-06-14T12:34:54;24.30;57.80
18412;DHT22;27097;51.738;19.472;2023-06-14T12:37:21;24.30;56.50
18412;DHT22;27097;51.738;19.472;2023-06-14T12:39:48;24.30;56.80
18412;DHT22;27097;51.738;19.472;2023-06-14T12:42:16;24.30;57.50
18412;DHT22;27097;51.738;19.472;2023-06-14T12:44:45;24.30;57.20
18412;DHT22;27097;51.738;19.472;2023-06-14T12:47:12;24.30;56.80
18412;DHT22;27097;51.738;19.472;2023-06-14T12:49:39;24.30;56.50
18412;DHT22;27097;51.738;19.472;2023-06-14T12:52:08;24.30;56.90
18412;DHT22;27097;51.738;19.472;2023-06-14T12:54:35;24.30;57.00
18412;DHT22;27097;51.738;19.472;2023-06-14T12:57:02;24.30;57.10
18412;DHT22;27097;51.738;19.472;2023-06-14T12:59:29;24.30;56.70
18412;DHT22;27097;51.738;19.472;2023-06-14T13:02:11;24.30;58.80
18412;DHT22;27097;51.738;19.472;2023-06-14T13:04:37;24.30;57.60
18412;DHT22;27097;51.738;19.472;2023-06-14T13:07:05;24.30;57.50
18412;DHT22;27097;51.738;19.472;2023-06-14T13:09:32;24.30;58.10
18412;DHT22;27097;51.738;19.472;2023-06-14T13:11:59;24.30;57.50
18412;DHT22;27097;51.738;19.472;2023-06-14T13:14:26;24.00;57.20
18412;DHT22;27097;51.738;19.472;2023-06-14T13:16:53;24.00;57.50
18412;DHT22;27097;51.738;19.472;2023-06-14T13:19:22;24.00;59.50
18412;DHT22;27097;51.738;19.472;2023-06-14T13:21:49;24.00;59.60
18412;DHT22;27097;51.738;19.472;2023-06-14T13:24:16;24.00;59.30
18412;DHT22;27097;51.738;19.472;2023-06-14T13:26:43;24.00;59.20
18412;DHT22;27097;51.738;19.472;2023-06-14T13:29:10;24.00;59.00
18412;DHT22;27097;51.738;19.472;2023-06-14T13:31:37;24.10;59.00
18412;DHT22;27097;51.738;19.472;2023-06-14T13:34:04;24.10;59.50
18412;DHT22;27097;51.738;19.472;2023-06-14T13:36:32;24.10;59.70
18412;DHT22;27097;51.738;19.472;2023-06-14T13:39:00;24.10;59.70
18412;DHT22;27097;51.738;19.472;2023-06-14T13:41:28;24.10;60.10
18412;DHT22;27097;51.738;19.472;2023-06-14T13:43:57;24.20;60.20
18412;DHT22;27097;51.738;19.472;2023-06-14T13:46:25;24.10;60.30
18412;DHT22;27097;51.738;19.472;2023-06-14T13:48:52;24.10;60.60
18412;DHT22;27097;51.738;19.472;2023-06-14T13:51:19;24.10;60.60
18412;DHT22;27097;51.738;19.472;2023-06-14T13:53:48;24.10;60.90
18412;DHT22;27097;51.738;19.472;2023-06-14T13:56:16;24.10;60.90
18412;DHT22;27097;51.738;19.472;2023-06-14T13:58:44;24.10;60.80
18412;DHT22;27097;51.738;19.472;2023-06-14T14:01:11;24.10;61.00
18412;DHT22;27097;51.738;19.472;2023-06-14T14:03:38;24.20;61.20
18412;DHT22;27097;51.738;19.472;2023-06-14T14:06:10;24.10;62.90
18412;DHT22;27097;51.738;19.472;2023-06-14T14:08:41;24.10;63.80
18412;DHT22;27097;51.738;19.472;2023-06-14T14:11:10;24.10;63.40
18412;DHT22;27097;51.738;19.472;2023-06-14T14:13:38;24.20;63.80
18412;DHT22;27097;51.738;19.472;2023-06-14T14:16:10;24.10;63.10
18412;DHT22;27097;51.738;19.472;2023-06-14T14:18:38;24.10;63.00
18412;DHT22;27097;51.738;19.472;2023-06-14T14:21:05;24.20;63.50
18412;DHT22;27097;51.738;19.472;2023-06-14T14:23:32;24.10;62.50
18412;DHT22;27097;51.738;19.472;2023-06-14T14:25:58;24.10;62.90
18412;DHT22;27097;51.738;19.472;2023-06-14T14:28:27;24.10;63.30
18412;DHT22;27097;51.738;19.472;2023-06-14T14:30:54;24.10;63.00
18412;DHT22;27097;51.738;19.472;2023-06-14T14:33:21;24.20;62.90
18412;DHT22;27097;51.738;19.472;2023-06-14T14:35:48;24.10;63.10
18412;DHT22;27097;51.738;19.472;2023-06-14T14:38:15;24.10;62.90
18412;DHT22;27097;51.738;19.472;2023-06-14T14:40:43;24.10;63.90
18412;DHT22;27097;51.738;19.472;2023-06-14T14:43:10;24.10;63.00
18412;DHT22;27097;51.738;19.472;2023-06-14T14:45:38;24.10;63.10
18412;DHT22;27097;51.738;19.472;2023-06-14T14:48:05;24.10;62.90
18412;DHT22;27097;51.738;19.472;2023-06-14T14:50:33;24.10;62.90
18412;DHT22;27097;51.738;19.472;2023-06-14T14:53:00;24.10;63.10
18412;DHT22;27097;51.738;19.472;2023-06-14T14:55:27;24.10;63.00
18412;DHT22;27097;51.738;19.472;2023-06-14T14:57:54;24.10;62.70
18412;DHT22;27097;51.738;19.472;2023-06-14T15:00:21;24.20;63.00
18412;DHT22;27097;51.738;19.472;2023-06-14T15:02:49;24.10;62.60
18412;DHT22;27097;51.738;19.472;2023-06-14T15:05:16;24.10;62.90
18412;DHT22;27097;51.738;19.472;2023-06-14T15:07:43;24.20;63.00
18412;DHT22;27097;51.738;19.472;2023-06-14T15:10:11;24.10;62.80
18412;DHT22;27097;51.738;19.472;2023-06-14T15:12:38;24.10;62.60
18412;DHT22;27097;51.738;19.472;2023-06-14T15:15:06;24.10;62.70
18412;DHT22;27097;51.738;19.472;2023-06-14T15:17:35;24.20;63.10
18412;DHT22;27097;51.738;19.472;2023-06-14T15:20:03;24.10;62.80
18412;DHT22;27097;51.738;19.472;2023-06-14T15:22:31;24.10;63.10
18412;DHT22;27097;51.738;19.472;2023-06-14T15:24:59;24.20;63.30
18412;DHT22;27097;51.738;19.472;2023-06-14T15:27:26;24.10;63.40